»·PEaware :: N81041 KSNA-KBFL

N81041 :: KSNA-KBFL

FLIGHT INFORMATION

Flight Status: Arrived
Operator: Privately registered:
United States
More flights under this callsign
Pilot: John C. (12173)
Aircraft: Unknown
(AA5B)
More flights by this aircraft type
Origin: KSNA John Wayne-Orange Co
United States
Destination: KBFL Meadows
United States
More flights between these airports :: More routes between these airports
Route: +ANAHM1 LHS FASTO2
File this flight plan on PilotEdge
Remarks:
Altitude:
(Current/Filed)
8,000ft
Speed:
(Current/Filed)
130kts
Departed: 11-Oct-18 07:36 AM
Arrived: 11-Oct-18 09:08 AM
Distance/Time
Traveled:
121nm/1:31
Distance/Time
To Go:
Arrived

Flight Plot

Page will automatically refresh every two minutes.

Flight plan parsing failed; only flown route is shown


Map Options




Map Legend


Flown Route
Filed Route
Departure Airport
Arrival Airport
Navaid (VOR, NDB)
Fix

Horizontal Profiles

Position Reports

Time Latitude Longitude Heading Altitude Ground
Speed
11-Oct-18 07:26 33.676178 -117.870981 219 48ft 0kts
11-Oct-18 07:27 33.676178 -117.870981 219 48ft 0kts
11-Oct-18 07:28 33.676178 -117.870981 219 48ft 0kts
11-Oct-18 07:29 33.676178 -117.870981 219 48ft 0kts
11-Oct-18 07:30 33.676178 -117.870981 219 48ft 0kts
11-Oct-18 07:31 33.676178 -117.870981 219 48ft 0kts
11-Oct-18 07:32 33.676178 -117.870981 219 48ft 0kts
11-Oct-18 07:33 33.675904 -117.870196 33 48ft 10kts
11-Oct-18 07:34 33.680388 -117.867543 26 41ft 24kts
11-Oct-18 07:35 33.681100 -117.867015 67 40ft 0kts
11-Oct-18 07:36 33.680982 -117.865867 131 38ft 19kts
11-Oct-18 07:37 33.680501 -117.865764 204 39ft 11kts
11-Oct-18 07:38 33.666221 -117.876800 232 674ft 98kts
11-Oct-18 07:39 33.653318 -117.898485 234 1802ft 99kts
11-Oct-18 07:40 33.640197 -117.919291 235 2776ft 110kts
11-Oct-18 07:41 33.628649 -117.940891 272 3838ft 104kts
11-Oct-18 07:42 33.644388 -117.966304 318 4051ft 130kts
11-Oct-18 07:43 33.669074 -117.987788 327 3995ft 139kts
11-Oct-18 07:44 33.696314 -118.004803 337 3991ft 137kts
11-Oct-18 07:45 33.723230 -118.021890 330 3962ft 138kts
11-Oct-18 07:46 33.751288 -118.037409 338 3957ft 138kts
11-Oct-18 07:47 33.779154 -118.051426 339 3973ft 138kts
11-Oct-18 07:48 33.797239 -118.032323 83 4065ft 136kts
11-Oct-18 07:49 33.800132 -117.994486 86 4350ft 142kts
11-Oct-18 07:50 33.809065 -117.959481 69 4902ft 136kts
11-Oct-18 07:51 33.820024 -117.925630 71 5375ft 137kts
11-Oct-18 07:52 33.827738 -117.891041 73 5902ft 136kts
11-Oct-18 07:53 33.835925 -117.857692 69 6446ft 133kts
11-Oct-18 07:54 33.846355 -117.823009 65 6932ft 135kts
11-Oct-18 07:55 33.859442 -117.788518 34 6988ft 142kts
11-Oct-18 07:56 33.889808 -117.786636 3 6973ft 133kts
11-Oct-18 07:57 33.920299 -117.784810 355 6884ft 134kts
11-Oct-18 07:58 33.950534 -117.786907 1 6982ft 133kts
11-Oct-18 07:59 33.980766 -117.790386 347 7044ft 134kts
11-Oct-18 08:00 33.995949 -117.818101 281 7423ft 125kts
11-Oct-18 08:01 34.000030 -117.843907 281 7918ft 123kts
11-Oct-18 08:02 34.004450 -117.868909 286 8066ft 129kts
11-Oct-18 08:03 34.012200 -117.894764 294 8074ft 135kts
11-Oct-18 08:04 34.019664 -117.920804 294 7988ft 137kts
11-Oct-18 08:05 34.029038 -117.944368 284 7904ft 137kts
11-Oct-18 08:06 34.035654 -117.967867 293 7921ft 131kts
11-Oct-18 08:07 34.042460 -117.991589 288 7951ft 128kts
11-Oct-18 08:08 34.051581 -118.014189 297 7939ft 129kts
11-Oct-18 08:09 34.059942 -118.038056 298 7968ft 128kts
11-Oct-18 08:10 34.068435 -118.063173 290 7923ft 132kts
11-Oct-18 08:11 34.079316 -118.088408 292 7977ft 129kts
11-Oct-18 08:12 34.088904 -118.117926 293 8030ft 128kts
11-Oct-18 08:13 34.100447 -118.149705 296 8010ft 131kts
11-Oct-18 08:14 34.111120 -118.182028 300 8011ft 130kts
11-Oct-18 08:15 34.128500 -118.209903 309 8011ft 130kts
11-Oct-18 08:16 34.146891 -118.234513 310 8554ft 114kts
11-Oct-18 08:17 34.164522 -118.256460 309 9295ft 111kts
11-Oct-18 08:18 34.183178 -118.275426 327 9966ft 114kts
11-Oct-18 08:19 34.206825 -118.294616 312 10140ft 130kts
11-Oct-18 08:20 34.230546 -118.317378 323 10023ft 141kts
11-Oct-18 08:21 34.257178 -118.335967 327 9907ft 135kts
11-Oct-18 08:22 34.283047 -118.353172 331 9922ft 130kts
11-Oct-18 08:23 34.309720 -118.367997 337 9946ft 126kts
11-Oct-18 08:24 34.337003 -118.378018 330 9972ft 127kts
11-Oct-18 08:25 34.364744 -118.387179 338 10019ft 128kts
11-Oct-18 08:26 34.390935 -118.401386 335 10056ft 128kts
11-Oct-18 08:27 34.416734 -118.416944 332 10073ft 128kts
11-Oct-18 08:28 34.443661 -118.430318 337 10112ft 129kts
11-Oct-18 08:29 34.471370 -118.442559 334 10092ft 131kts
11-Oct-18 08:30 34.496294 -118.461088 324 10107ft 128kts
11-Oct-18 08:31 34.522421 -118.477992 332 10085ft 129kts
11-Oct-18 08:32 34.548856 -118.494523 327 10012ft 131kts
11-Oct-18 08:33 34.574899 -118.510947 328 9980ft 131kts
11-Oct-18 08:34 34.601694 -118.526292 331 9982ft 130kts
11-Oct-18 08:35 34.628117 -118.542174 327 9958ft 130kts
11-Oct-18 08:36 34.653288 -118.559927 331 9970ft 129kts
11-Oct-18 08:37 34.680108 -118.574838 326 9935ft 131kts
11-Oct-18 08:38 34.702294 -118.597209 315 9922ft 130kts
11-Oct-18 08:39 34.725145 -118.618458 312 9921ft 129kts
11-Oct-18 08:40 34.746874 -118.641530 322 9894ft 132kts
11-Oct-18 08:41 34.768843 -118.664495 318 9908ft 131kts
11-Oct-18 08:42 34.789835 -118.687183 322 10030ft 123kts
11-Oct-18 08:43 34.812952 -118.706192 314 9962ft 133kts
11-Oct-18 08:44 34.833945 -118.730642 309 10055ft 131kts
11-Oct-18 08:45 34.855601 -118.753852 313 10068ft 135kts
11-Oct-18 08:46 34.879676 -118.774635 335 10105ft 136kts
11-Oct-18 08:47 34.901826 -118.798777 307 10049ft 137kts
11-Oct-18 08:48 34.924990 -118.823922 321 9994ft 141kts
11-Oct-18 08:49 34.948623 -118.848619 317 10005ft 141kts
11-Oct-18 08:50 34.977385 -118.863415 345 9981ft 143kts
11-Oct-18 08:51 35.008971 -118.865244 0 9726ft 144kts
11-Oct-18 08:52 35.040125 -118.865211 1 9239ft 136kts
11-Oct-18 08:53 35.070808 -118.864671 0 8572ft 137kts
11-Oct-18 08:54 35.101327 -118.864609 8 7928ft 135kts
11-Oct-18 08:55 35.130864 -118.858187 11 7317ft 133kts
11-Oct-18 08:56 35.160364 -118.852144 11 6706ft 131kts
11-Oct-18 08:57 35.189645 -118.849741 3 6126ft 130kts
11-Oct-18 08:58 35.218514 -118.852684 340 5525ft 131kts
11-Oct-18 08:59 35.240963 -118.863743 340 5033ft 127kts
11-Oct-18 09:00 35.272095 -118.878287 344 4297ft 125kts
11-Oct-18 09:01 35.297944 -118.891871 341 3679ft 124kts
11-Oct-18 09:02 35.313192 -118.913391 313 3194ft 122kts
11-Oct-18 09:03 35.336004 -118.938475 321 2904ft 112kts
11-Oct-18 09:04 35.350039 -118.956989 318 2809ft 112kts
11-Oct-18 09:05 35.368516 -118.977833 318 2334ft 113kts
11-Oct-18 09:06 35.389609 -119.003022 314 1631ft 112kts
11-Oct-18 09:07 35.403478 -119.019888 323 1187ft 93kts
11-Oct-18 09:08 35.416917 -119.036564 323 843ft 73kts
11-Oct-18 09:09 35.428424 -119.049792 321 610ft 64kts
11-Oct-18 09:10 35.436895 -119.059872 314 485ft 31kts
11-Oct-18 09:11 35.438246 -119.059816 87 490ft 0kts
11-Oct-18 09:12 35.438203 -119.059658 81 490ft 0kts
11-Oct-18 09:13 35.437745 -119.056736 48 498ft 0kts
11-Oct-18 09:14 35.437745 -119.056735 47 498ft 0kts
11-Oct-18 09:15 35.437745 -119.056735 47 498ft 0kts
11-Oct-18 09:16 35.437745 -119.056735 47 498ft 0kts

Navigation Log

Ident Type
Flight plan parsing failed, navigation log unavailable